Time;durP1;ratioP1;P1;durP2;ratioP2;P2;SDS_P1;SDS_P2;PMS_P1;PMS_P2;Temp;Humidity;BMP_temperature;BMP_pressure;BME280_temperature;BME280_humidity;BME280_pressure;Samples;Min_cycle;Max_cycle;Signal;HPM_P1;HPM_P2
2021/01/01 00:01:58;;;;;;;15.38;7.78;;;3.20;99.90;;;;;;5013427;28;20117;-82
2021/01/01 00:04:24;;;;;;;15.75;7.38;;;3.20;99.90;;;;;;5031513;28;20046;-81
2021/01/01 00:06:50;;;;;;;24.90;12.02;;;3.20;99.90;;;;;;5014139;28;20026;-81
2021/01/01 00:09:17;;;;;;;19.98;9.95;;;3.20;99.90;;;;;;5030424;28;20026;-85
2021/01/01 00:11:47;;;;;;;18.98;10.18;;;3.20;99.90;;;;;;5013509;28;20081;-81
2021/01/01 00:14:13;;;;;;;14.70;8.73;;;3.20;99.90;;;;;;5013923;28;20466;-78
2021/01/01 00:16:44;;;;;;;17.25;8.00;;;3.10;99.90;;;;;;5031309;28;20025;-80
2021/01/01 00:19:10;;;;;;;14.95;6.88;;;3.20;99.90;;;;;;5013573;28;20058;-84
2021/01/01 00:21:36;;;;;;;15.70;6.80;;;3.10;99.90;;;;;;5013256;28;20037;-83
2021/01/01 00:24:01;;;;;;;10.57;5.78;;;3.10;99.90;;;;;;5013525;28;20612;-81
2021/01/01 00:26:27;;;;;;;15.25;7.05;;;3.10;99.90;;;;;;5013747;28;20022;-80
2021/01/01 00:28:53;;;;;;;16.80;8.13;;;3.00;99.90;;;;;;5013782;28;20033;-81
2021/01/01 00:31:26;;;;;;;12.82;6.32;;;3.00;99.90;;;;;;5013607;28;20041;-86
2021/01/01 00:33:52;;;;;;;17.75;7.35;;;3.00;99.90;;;;;;5013769;28;20029;-84
2021/01/01 00:36:19;;;;;;;14.93;7.57;;;3.00;99.90;;;;;;5031328;28;20072;-83
2021/01/01 00:38:51;;;;;;;23.27;9.73;;;3.00;99.90;;;;;;5031208;28;20022;-82
2021/01/01 00:41:25;;;;;;;15.63;8.88;;;2.90;99.90;;;;;;5012322;28;20034;-82
2021/01/01 00:43:52;;;;;;;21.58;9.43;;;2.90;99.90;;;;;;5010105;28;20033;-80
2021/01/01 00:46:18;;;;;;;20.52;9.40;;;2.90;99.90;;;;;;5010248;28;20041;-82
2021/01/01 00:48:43;;;;;;;20.65;9.20;;;2.90;99.90;;;;;;5027518;28;20390;-78
2021/01/01 00:51:09;;;;;;;20.15;8.68;;;2.90;99.90;;;;;;5010104;28;20030;-81
2021/01/01 00:53:34;;;;;;;18.73;9.35;;;2.90;99.90;;;;;;5026477;28;20037;-79
2021/01/01 00:56:00;;;;;;;16.98;7.30;;;2.90;99.90;;;;;;5009884;28;20037;-83
2021/01/01 00:58:26;;;;;;;12.82;7.15;;;2.90;99.90;;;;;;5011351;28;20050;-82
2021/01/01 01:00:52;;;;;;;21.45;7.93;;;2.90;99.90;;;;;;5027887;28;20050;-78
2021/01/01 01:03:18;;;;;;;18.65;8.20;;;3.00;99.90;;;;;;5009746;28;20037;-79
2021/01/01 01:05:43;;;;;;;11.85;6.03;;;3.00;99.90;;;;;;5027489;28;20038;-79
2021/01/01 01:08:09;;;;;;;13.75;7.60;;;3.10;99.90;;;;;;5027500;28;20026;-82
2021/01/01 01:10:34;;;;;;;17.70;7.57;;;3.00;99.90;;;;;;5009916;28;20108;-79
2021/01/01 01:13:00;;;;;;;20.40;7.63;;;3.00;99.90;;;;;;5027575;28;20022;-79
2021/01/01 01:15:26;;;;;;;10.93;6.47;;;3.00;99.90;;;;;;5010141;28;20061;-78
2021/01/01 01:17:51;;;;;;;15.80;7.18;;;3.00;99.90;;;;;;5008924;28;20048;-79
2021/01/01 01:20:17;;;;;;;13.95;6.13;;;3.10;99.90;;;;;;5027614;28;20038;-78
2021/01/01 01:22:42;;;;;;;10.75;6.57;;;3.10;99.90;;;;;;5009643;28;20025;-79
2021/01/01 01:25:08;;;;;;;12.50;6.38;;;3.10;99.90;;;;;;5027036;28;20064;-80
2021/01/01 01:27:34;;;;;;;11.18;6.60;;;3.10;99.90;;;;;;5009415;28;20558;-79
2021/01/01 01:30:02;;;;;;;17.67;6.80;;;3.10;99.90;;;;;;5009519;28;20049;-78
2021/01/01 01:32:28;;;;;;;11.80;6.68;;;3.20;99.90;;;;;;5009090;28;20030;-78
2021/01/01 01:34:53;;;;;;;11.15;6.00;;;3.10;99.90;;;;;;5009561;28;20037;-81
2021/01/01 01:37:19;;;;;;;13.30;6.22;;;3.10;99.90;;;;;;5010315;28;20026;-78
2021/01/01 01:39:44;;;;;;;15.35;5.78;;;3.10;99.90;;;;;;5010771;28;20382;-83
2021/01/01 01:42:10;;;;;;;14.70;6.22;;;3.10;99.90;;;;;;5009526;28;20097;-81
2021/01/01 01:44:36;;;;;;;11.40;5.93;;;3.10;99.90;;;;;;5010287;28;20038;-79
2021/01/01 01:47:02;;;;;;;14.25;7.28;;;3.10;99.90;;;;;;5010996;28;20025;-81
2021/01/01 01:49:28;;;;;;;14.50;6.50;;;3.10;99.90;;;;;;5011229;28;20033;-79
2021/01/01 01:51:54;;;;;;;19.13;6.38;;;3.10;99.90;;;;;;5011509;28;20029;-80
2021/01/01 01:54:21;;;;;;;13.13;6.82;;;3.10;99.90;;;;;;5031904;28;20037;-80
2021/01/01 01:56:46;;;;;;;11.20;5.43;;;3.10;99.90;;;;;;5026937;28;20500;-80
2021/01/01 01:59:16;;;;;;;11.50;5.72;;;3.10;99.90;;;;;;5008914;28;20034;-82
2021/01/01 02:01:41;;;;;;;10.40;5.85;;;3.10;99.90;;;;;;5026781;28;20022;-84
2021/01/01 02:04:07;;;;;;;12.38;6.07;;;3.20;99.90;;;;;;5008894;28;20121;-82
2021/01/01 02:06:33;;;;;;;13.32;6.28;;;3.20;99.90;;;;;;5026147;28;20037;-81
2021/01/01 02:09:00;;;;;;;10.65;6.20;;;3.20;99.90;;;;;;5008822;28;20045;-83
2021/01/01 02:11:26;;;;;;;13.30;7.28;;;3.10;99.90;;;;;;5026686;28;20100;-80
2021/01/01 02:13:54;;;;;;;19.00;6.35;;;3.20;99.90;;;;;;5008718;28;20032;-82
2021/01/01 02:16:21;;;;;;;14.80;6.93;;;3.20;99.90;;;;;;5008335;28;20038;-82
2021/01/01 02:18:47;;;;;;;18.15;6.18;;;3.10;99.90;;;;;;5008066;28;20050;-81
2021/01/01 02:21:15;;;;;;;15.30;6.22;;;3.20;99.90;;;;;;5008193;28;20053;-85
2021/01/01 02:23:41;;;;;;;14.43;7.07;;;3.20;99.90;;;;;;5008452;28;20049;-82
2021/01/01 02:26:06;;;;;;;12.52;6.28;;;3.10;99.90;;;;;;5008270;28;20042;-82
2021/01/01 02:28:32;;;;;;;16.85;7.43;;;3.10;99.90;;;;;;5008243;28;20041;-83
2021/01/01 02:30:58;;;;;;;11.50;6.75;;;3.20;99.90;;;;;;5008282;28;20026;-79
2021/01/01 02:33:24;;;;;;;15.40;6.05;;;3.20;99.90;;;;;;5008235;28;20026;-82
2021/01/01 02:35:49;;;;;;;10.38;5.53;;;3.10;99.90;;;;;;5024213;28;20482;-80
2021/01/01 02:38:15;;;;;;;10.57;5.68;;;3.20;99.90;;;;;;5026178;28;20459;-81
2021/01/01 02:40:40;;;;;;;14.93;7.18;;;3.20;99.90;;;;;;5007962;28;20033;-83
2021/01/01 02:43:06;;;;;;;12.10;6.95;;;3.10;99.90;;;;;;5007844;28;20359;-80
2021/01/01 02:45:32;;;;;;;16.92;7.28;;;3.20;99.90;;;;;;5007914;28;20128;-84
2021/01/01 02:48:10;;;;;;;9.20;5.72;;;3.20;99.90;;;;;;5007997;28;20026;-80
2021/01/01 02:50:36;;;;;;;14.57;7.57;;;3.20;99.90;;;;;;5025618;28;20040;-85
2021/01/01 02:53:03;;;;;;;13.93;6.82;;;3.20;99.90;;;;;;5007874;28;20094;-83
2021/01/01 02:55:30;;;;;;;19.55;7.30;;;3.20;99.90;;;;;;5008124;28;20026;-81
2021/01/01 02:57:57;;;;;;;12.27;5.70;;;3.20;99.90;;;;;;5024367;28;20544;-78
2021/01/01 03:00:23;;;;;;;11.00;5.55;;;3.20;99.90;;;;;;5025938;28;20030;-81
2021/01/01 03:02:49;;;;;;;15.75;6.60;;;3.20;99.90;;;;;;5007598;28;20154;-82
2021/01/01 03:05:14;;;;;;;14.98;7.20;;;3.20;99.90;;;;;;5024662;28;20481;-81
2021/01/01 03:07:40;;;;;;;12.00;6.07;;;3.20;99.90;;;;;;5007639;28;20029;-79
2021/01/01 03:10:06;;;;;;;15.68;7.57;;;3.20;99.90;;;;;;5007245;28;20026;-78
2021/01/01 03:12:31;;;;;;;14.40;7.85;;;3.20;99.90;;;;;;5007774;28;20034;-81
2021/01/01 03:14:57;;;;;;;11.68;6.05;;;3.20;99.90;;;;;;5025505;28;20030;-82
2021/01/01 03:17:22;;;;;;;12.43;6.35;;;3.20;99.90;;;;;;5007097;28;20032;-79
2021/01/01 03:19:48;;;;;;;15.45;7.05;;;3.20;99.90;;;;;;5007287;28;20049;-79
2021/01/01 03:22:13;;;;;;;14.60;6.97;;;3.20;99.90;;;;;;5007471;28;20029;-82
2021/01/01 03:24:39;;;;;;;12.18;7.35;;;3.20;99.90;;;;;;5006971;28;20034;-81
2021/01/01 03:27:05;;;;;;;13.77;6.45;;;3.20;99.90;;;;;;5025301;28;20462;-80
2021/01/01 03:29:30;;;;;;;19.63;6.95;;;3.20;99.90;;;;;;5023883;28;20022;-84
2021/01/01 03:31:56;;;;;;;12.43;6.18;;;3.20;99.90;;;;;;5007489;28;20084;-84
2021/01/01 03:34:21;;;;;;;13.15;6.70;;;3.20;99.90;;;;;;5025309;28;20022;-80
2021/01/01 03:36:47;;;;;;;15.35;7.55;;;3.20;99.90;;;;;;5025055;28;20038;-81
2021/01/01 03:39:13;;;;;;;15.30;7.60;;;3.20;99.90;;;;;;5024813;28;20046;-80
2021/01/01 03:41:39;;;;;;;16.08;7.82;;;3.20;99.90;;;;;;5023599;28;20026;-79
2021/01/01 03:44:04;;;;;;;15.15;7.35;;;3.20;99.90;;;;;;5007201;28;20076;-78
2021/01/01 03:46:30;;;;;;;11.15;6.82;;;3.20;99.90;;;;;;5007209;28;20086;-79
2021/01/01 03:48:55;;;;;;;15.02;7.65;;;3.20;99.90;;;;;;5007587;28;20030;-79
2021/01/01 03:51:21;;;;;;;13.75;7.32;;;3.30;99.90;;;;;;5007356;28;20394;-81
2021/01/01 03:53:46;;;;;;;10.95;6.30;;;3.20;99.90;;;;;;5006698;28;20146;-77
2021/01/01 03:56:12;;;;;;;16.67;7.22;;;3.20;99.90;;;;;;5025013;28;20117;-80
2021/01/01 03:58:38;;;;;;;16.30;7.63;;;3.20;99.90;;;;;;5007130;28;20033;-80
2021/01/01 04:01:03;;;;;;;13.27;6.20;;;3.20;99.90;;;;;;5024554;28;20032;-79
2021/01/01 04:03:29;;;;;;;12.95;6.38;;;3.20;99.90;;;;;;5007015;28;20076;-80
2021/01/01 04:05:54;;;;;;;14.10;6.70;;;3.20;99.90;;;;;;5007014;28;20089;-78
2021/01/01 04:08:20;;;;;;;14.48;7.07;;;3.20;99.90;;;;;;5023670;28;20022;-81
2021/01/01 04:10:45;;;;;;;13.27;6.25;;;3.20;99.90;;;;;;5023370;28;20152;-79
2021/01/01 04:13:11;;;;;;;19.38;6.85;;;3.20;99.90;;;;;;5007287;28;20081;-78
2021/01/01 04:15:36;;;;;;;14.32;6.65;;;3.20;99.90;;;;;;5007448;28;20041;-81
2021/01/01 04:18:02;;;;;;;14.20;6.63;;;3.20;99.90;;;;;;5025157;28;20026;-82
2021/01/01 04:20:28;;;;;;;12.13;6.82;;;3.20;99.90;;;;;;5010618;28;20030;-80
2021/01/01 04:22:53;;;;;;;15.18;6.38;;;3.20;99.90;;;;;;5028590;28;20478;-78
2021/01/01 04:25:19;;;;;;;18.80;6.95;;;3.20;99.90;;;;;;5028333;28;20545;-80
2021/01/01 04:27:44;;;;;;;13.52;6.20;;;3.10;99.90;;;;;;5027949;28;20034;-80
2021/01/01 04:30:10;;;;;;;13.88;7.40;;;3.10;99.90;;;;;;5028115;28;20041;-82
2021/01/01 04:32:36;;;;;;;17.10;7.47;;;3.10;99.90;;;;;;5010395;28;20029;-80
2021/01/01 04:35:02;;;;;;;14.40;7.15;;;3.10;99.90;;;;;;5010236;28;20026;-81
2021/01/01 04:37:27;;;;;;;15.43;7.78;;;3.10;99.90;;;;;;5028242;28;20040;-81
2021/01/01 04:39:53;;;;;;;15.07;7.22;;;3.10;99.90;;;;;;5010740;28;20026;-82
2021/01/01 04:42:19;;;;;;;17.45;7.95;;;3.10;99.90;;;;;;5010858;28;20045;-81
2021/01/01 04:44:45;;;;;;;14.93;7.55;;;3.00;99.90;;;;;;5010462;28;20486;-81
2021/01/01 04:47:13;;;;;;;13.98;7.00;;;3.00;99.90;;;;;;5010315;28;20065;-82
2021/01/01 04:49:39;;;;;;;11.88;7.00;;;3.00;99.90;;;;;;5027563;28;20022;-80
2021/01/01 04:52:08;;;;;;;19.90;7.78;;;3.10;99.90;;;;;;5010134;28;20026;-83
2021/01/01 04:54:34;;;;;;;13.98;6.47;;;3.10;99.90;;;;;;5010151;28;20037;-82
2021/01/01 04:57:00;;;;;;;12.95;6.95;;;3.10;99.90;;;;;;5027516;28;20030;-82
2021/01/01 04:59:26;;;;;;;15.60;7.53;;;3.10;99.90;;;;;;5010528;28;20026;-80
2021/01/01 05:01:52;;;;;;;12.57;6.57;;;3.00;99.90;;;;;;5010026;28;20026;-83
2021/01/01 05:04:19;;;;;;;15.45;6.75;;;3.10;99.90;;;;;;5009716;28;20076;-85
2021/01/01 05:06:44;;;;;;;19.42;7.60;;;3.10;99.90;;;;;;5010129;28;20085;-81
2021/01/01 05:09:13;;;;;;;15.43;5.90;;;3.10;99.90;;;;;;5009846;28;20026;-81
2021/01/01 05:11:40;;;;;;;11.90;7.05;;;3.10;99.90;;;;;;5009526;28;20037;-82
2021/01/01 05:14:06;;;;;;;14.82;6.93;;;3.10;99.90;;;;;;5009826;28;20026;-82
2021/01/01 05:16:33;;;;;;;14.45;6.38;;;3.10;99.90;;;;;;5009846;28;20029;-83
2021/01/01 05:19:08;;;;;;;19.75;7.53;;;3.10;99.90;;;;;;5026810;28;20105;-85
2021/01/01 05:21:34;;;;;;;14.40;6.03;;;3.10;99.90;;;;;;5009431;28;20033;-83
2021/01/01 05:24:00;;;;;;;16.42;8.20;;;3.10;99.90;;;;;;5009606;28;20026;-82
2021/01/01 05:26:27;;;;;;;14.52;6.35;;;3.10;99.90;;;;;;5009231;28;20119;-81
2021/01/01 05:28:54;;;;;;;19.42;7.18;;;3.20;99.90;;;;;;5009246;28;20018;-83
2021/01/01 05:31:25;;;;;;;13.57;6.75;;;3.10;99.90;;;;;;5009340;28;20029;-84
2021/01/01 05:34:09;;;;;;;10.32;5.53;;;3.20;99.90;;;;;;5009585;28;20129;-81
2021/01/01 05:36:40;;;;;;;10.40;6.70;;;3.20;99.90;;;;;;5009413;28;20037;-84
2021/01/01 05:39:22;;;;;;;11.95;5.93;;;3.20;99.90;;;;;;5009069;28;20037;-84
2021/01/01 05:41:50;;;;;;;15.32;7.47;;;3.30;99.90;;;;;;5009194;28;20048;-82
2021/01/01 05:44:21;;;;;;;17.70;7.20;;;3.20;99.90;;;;;;5008822;28;20037;-83
2021/01/01 05:46:56;;;;;;;15.45;7.70;;;3.20;99.90;;;;;;5026544;28;20030;-84
2021/01/01 05:49:23;;;;;;;15.65;7.22;;;3.20;99.90;;;;;;5009004;28;20025;-81
2021/01/01 05:52:25;;;;;;;16.55;7.90;;;3.30;99.90;;;;;;5025578;28;20093;-81
2021/01/01 05:55:01;;;;;;;17.23;7.88;;;3.20;99.90;;;;;;5008901;28;20034;-84
2021/01/01 05:57:35;;;;;;;11.80;5.93;;;3.20;99.90;;;;;;5009163;28;20026;-81
2021/01/01 06:00:06;;;;;;;14.40;6.68;;;3.30;99.90;;;;;;5008606;28;20030;-81
2021/01/01 06:02:43;;;;;;;17.88;7.20;;;3.30;99.90;;;;;;5008737;28;20101;-81
2021/01/01 06:05:10;;;;;;;12.80;6.80;;;3.30;99.90;;;;;;5008499;28;20033;-81
2021/01/01 06:07:38;;;;;;;18.98;7.57;;;3.30;99.90;;;;;;5007723;28;20136;-83
2021/01/01 06:10:05;;;;;;;15.63;7.05;;;3.30;99.90;;;;;;5008817;28;20072;-84
2021/01/01 06:12:35;;;;;;;14.25;6.90;;;3.30;99.90;;;;;;5008627;28;20036;-81
2021/01/01 06:15:02;;;;;;;13.50;6.88;;;3.30;99.90;;;;;;5008492;28;20029;-81
2021/01/01 06:17:50;;;;;;;19.02;7.55;;;3.30;99.90;;;;;;5007943;28;20026;-81
2021/01/01 06:20:20;;;;;;;14.02;7.60;;;3.30;99.90;;;;;;5008313;28;20113;-84
2021/01/01 06:23:00;;;;;;;15.35;5.93;;;3.30;99.90;;;;;;5008365;28;20121;-82
2021/01/01 06:25:26;;;;;;;11.73;6.18;;;3.30;99.90;;;;;;5008485;28;20041;-82
2021/01/01 06:27:52;;;;;;;16.75;7.32;;;3.30;99.90;;;;;;5008438;28;20026;-81
2021/01/01 06:30:23;;;;;;;14.88;7.40;;;3.30;99.90;;;;;;5008221;28;20033;-82
2021/01/01 06:32:50;;;;;;;18.30;7.80;;;3.30;99.90;;;;;;5008549;28;20034;-83
2021/01/01 06:35:21;;;;;;;15.30;8.38;;;3.30;99.90;;;;;;5007977;28;20059;-86
2021/01/01 06:37:51;;;;;;;18.50;7.40;;;3.30;99.90;;;;;;5008102;28;20063;-83
2021/01/01 06:40:20;;;;;;;18.50;8.15;;;3.20;99.90;;;;;;5007555;28;20040;-82
2021/01/01 06:42:57;;;;;;;14.30;7.43;;;3.20;99.90;;;;;;5025858;28;20026;-81
2021/01/01 06:45:43;;;;;;;20.48;7.93;;;3.20;99.90;;;;;;5008153;28;20041;-82
2021/01/01 06:48:13;;;;;;;15.65;7.30;;;3.20;99.90;;;;;;5007669;28;20386;-81
2021/01/01 06:50:43;;;;;;;18.25;8.27;;;3.20;99.90;;;;;;5008006;28;20079;-83
2021/01/01 06:53:14;;;;;;;13.75;7.15;;;3.20;99.90;;;;;;5025548;28;20022;-82
2021/01/01 06:55:42;;;;;;;13.82;6.60;;;3.20;99.90;;;;;;5007445;28;20034;-83
2021/01/01 06:58:09;;;;;;;14.85;6.85;;;3.20;99.90;;;;;;5007794;28;20061;-83
2021/01/01 07:00:50;;;;;;;14.10;7.63;;;3.20;99.90;;;;;;5007713;28;20030;-81
2021/01/01 07:03:42;;;;;;;11.55;6.45;;;3.10;99.90;;;;;;5007358;28;20032;-79
2021/01/01 07:06:07;;;;;;;14.40;7.45;;;3.10;99.90;;;;;;5021317;28;20060;-83
2021/01/01 07:08:42;;;;;;;14.35;7.63;;;3.10;99.90;;;;;;5007858;28;20049;-86
2021/01/01 07:11:13;;;;;;;13.75;7.32;;;3.00;99.90;;;;;;5024909;28;20032;-81
2021/01/01 07:14:05;;;;;;;20.85;7.07;;;3.00;99.90;;;;;;5025530;28;20085;-80
2021/01/01 07:16:33;;;;;;;13.63;7.72;;;2.90;99.90;;;;;;5007365;28;20577;-83
2021/01/01 07:18:59;;;;;;;14.30;7.00;;;2.90;99.90;;;;;;5005944;28;20077;-84
2021/01/01 07:21:25;;;;;;;16.33;7.75;;;2.80;99.90;;;;;;5006336;28;20025;-82
2021/01/01 07:23:51;;;;;;;10.55;5.88;;;2.80;99.90;;;;;;5007212;28;20041;-88
2021/01/01 07:26:17;;;;;;;18.08;7.07;;;2.70;99.90;;;;;;5024560;28;20048;-81
2021/01/01 07:28:48;;;;;;;18.58;8.57;;;2.70;99.90;;;;;;5007440;28;20021;-86
2021/01/01 07:31:15;;;;;;;16.17;7.63;;;2.60;99.90;;;;;;5006862;28;20022;-81
2021/01/01 07:33:41;;;;;;;19.40;7.32;;;2.60;99.90;;;;;;5007156;28;20058;-84
2021/01/01 07:36:10;;;;;;;13.93;7.60;;;2.50;99.90;;;;;;5008181;28;20390;-80
2021/01/01 07:38:41;;;;;;;16.77;7.78;;;2.50;99.90;;;;;;5026625;28;20034;-82
2021/01/01 07:41:07;;;;;;;16.17;7.38;;;2.50;99.90;;;;;;5010383;28;20093;-81
2021/01/01 07:43:33;;;;;;;16.02;7.35;;;2.50;99.90;;;;;;5009831;28;20018;-81
2021/01/01 07:46:04;;;;;;;17.40;8.73;;;2.50;99.90;;;;;;5010838;28;20040;-82
2021/01/01 07:48:30;;;;;;;20.63;8.27;;;2.50;99.90;;;;;;5007379;28;20093;-85
2021/01/01 07:51:01;;;;;;;16.25;8.52;;;2.50;99.90;;;;;;5025627;28;20044;-80
2021/01/01 07:53:30;;;;;;;13.13;6.30;;;2.50;99.90;;;;;;5010862;28;20041;-81
2021/01/01 07:56:00;;;;;;;19.55;7.85;;;2.50;99.90;;;;;;5010709;28;20030;-80
2021/01/01 07:58:30;;;;;;;18.05;8.45;;;2.60;99.90;;;;;;5010770;28;20083;-81
2021/01/01 08:01:10;;;;;;;17.35;7.60;;;2.60;99.90;;;;;;5028854;28;20032;-79
2021/01/01 08:03:37;;;;;;;21.02;6.45;;;2.70;99.90;;;;;;5010989;28;20060;-80
2021/01/01 08:06:04;;;;;;;16.00;7.13;;;2.70;99.90;;;;;;5010596;28;20038;-80
2021/01/01 08:08:30;;;;;;;12.32;6.18;;;2.70;99.90;;;;;;5011686;28;20157;-80
2021/01/01 08:10:58;;;;;;;14.10;6.60;;;2.80;99.90;;;;;;5013918;28;20032;-83
2021/01/01 08:13:31;;;;;;;13.85;7.40;;;2.90;99.90;;;;;;5012004;28;20090;-82
2021/01/01 08:15:58;;;;;;;20.95;7.72;;;2.90;99.90;;;;;;5011546;28;20041;-82
2021/01/01 08:18:26;;;;;;;16.52;6.80;;;2.90;99.90;;;;;;5011322;28;20054;-82
2021/01/01 08:21:00;;;;;;;14.52;7.07;;;3.00;99.90;;;;;;5011294;28;20785;-83
2021/01/01 08:23:28;;;;;;;16.45;8.32;;;3.00;99.90;;;;;;5011510;28;20033;-83
2021/01/01 08:25:55;;;;;;;20.60;7.05;;;3.00;99.90;;;;;;5011519;28;20037;-82
2021/01/01 08:28:28;;;;;;;16.05;7.93;;;3.10;99.90;;;;;;5011425;28;20025;-82
2021/01/01 08:31:01;;;;;;;16.27;8.10;;;3.10;99.90;;;;;;5028815;28;20103;-81
2021/01/01 08:33:30;;;;;;;21.42;7.85;;;3.10;99.90;;;;;;5010929;28;20036;-83
2021/01/01 08:36:04;;;;;;;19.95;8.63;;;3.20;99.90;;;;;;5010678;28;20053;-82
2021/01/01 08:38:30;;;;;;;13.25;7.43;;;3.20;99.90;;;;;;5010731;28;20041;-81
2021/01/01 08:40:57;;;;;;;17.45;7.20;;;3.20;99.90;;;;;;5010241;28;20060;-84
2021/01/01 08:43:24;;;;;;;10.40;6.20;;;3.20;99.90;;;;;;5010492;28;20032;-82
2021/01/01 08:45:49;;;;;;;18.40;7.45;;;3.30;99.90;;;;;;5009826;28;20041;-84
2021/01/01 08:48:16;;;;;;;20.95;7.22;;;3.30;99.90;;;;;;5010565;28;20059;-82
2021/01/01 08:50:47;;;;;;;14.82;7.22;;;3.40;99.90;;;;;;5010645;28;20030;-84
2021/01/01 08:53:13;;;;;;;12.38;6.25;;;3.40;99.90;;;;;;5028110;28;20385;-81
2021/01/01 08:55:39;;;;;;;17.75;7.15;;;3.40;99.90;;;;;;5009956;28;20034;-82
2021/01/01 08:58:13;;;;;;;9.45;6.32;;;3.50;99.90;;;;;;5010152;28;20022;-84
2021/01/01 09:00:40;;;;;;;;;;;3.50;99.90;;;;;;5010049;28;20141;-84
2021/01/01 09:03:06;;;;;;;13.90;7.90;;;3.50;99.90;;;;;;5008797;28;19952;-87
2021/01/01 09:05:33;;;;;;;17.25;7.07;;;3.60;99.90;;;;;;5027613;28;20034;-84
2021/01/01 09:08:25;;;;;;;10.85;7.25;;;3.60;99.90;;;;;;5010188;28;20076;-83
2021/01/01 09:10:54;;;;;;;9.95;6.30;;;3.80;99.90;;;;;;5023316;28;20050;-83
2021/01/01 09:13:30;;;;;;;18.30;6.65;;;3.80;99.90;;;;;;5026927;28;20041;-80
2021/01/01 09:16:09;;;;;;;17.48;7.00;;;3.90;99.90;;;;;;5007628;28;20026;-81
2021/01/01 09:18:36;;;;;;;16.88;7.15;;;4.00;99.90;;;;;;5008381;28;20053;-80
2021/01/01 09:21:12;;;;;;;19.50;8.27;;;4.10;99.90;;;;;;5026845;28;20117;-80
2021/01/01 09:23:38;;;;;;;11.68;6.70;;;4.10;99.90;;;;;;5008586;28;20445;-82
2021/01/01 09:26:05;;;;;;;12.05;7.15;;;4.10;99.90;;;;;;5008844;28;20042;-83
2021/01/01 09:28:30;;;;;;;13.25;6.65;;;4.20;99.90;;;;;;5026689;28;20034;-85
2021/01/01 09:30:56;;;;;;;13.43;7.07;;;4.10;99.90;;;;;;5009152;28;20037;-81
2021/01/01 09:33:22;;;;;;;12.05;6.20;;;4.10;99.90;;;;;;5009170;28;20052;-83
2021/01/01 09:35:48;;;;;;;13.30;7.18;;;4.10;99.90;;;;;;5004824;28;20060;-84
2021/01/01 09:38:13;;;;;;;12.93;6.72;;;4.00;99.90;;;;;;4993056;28;20041;-84
2021/01/01 09:40:41;;;;;;;15.73;7.05;;;4.00;99.90;;;;;;4989627;28;20050;-85
2021/01/01 09:43:07;;;;;;;17.45;6.65;;;4.10;99.90;;;;;;4989862;28;20042;-83
2021/01/01 09:45:39;;;;;;;13.75;7.18;;;4.10;99.90;;;;;;4994436;28;20053;-82
2021/01/01 09:48:06;;;;;;;22.70;8.05;;;4.10;99.90;;;;;;5009430;28;20034;-83
2021/01/01 09:50:33;;;;;;;14.23;7.38;;;4.10;99.90;;;;;;5010421;28;20033;-78
2021/01/01 09:52:58;;;;;;;13.95;7.35;;;4.10;99.90;;;;;;5027520;28;20068;-79
2021/01/01 09:55:25;;;;;;;14.80;7.43;;;4.20;99.90;;;;;;5009727;28;20040;-80
2021/01/01 09:57:51;;;;;;;20.23;8.48;;;4.10;99.90;;;;;;5027548;28;20029;-82
2021/01/01 10:00:17;;;;;;;14.65;8.00;;;4.20;99.90;;;;;;5008617;28;20150;-81
2021/01/01 10:02:43;;;;;;;11.63;6.22;;;4.20;99.90;;;;;;5008596;28;20030;-82
2021/01/01 10:05:11;;;;;;;19.95;8.63;;;4.30;99.90;;;;;;5007850;28;20049;-82
2021/01/01 10:07:37;;;;;;;12.30;6.80;;;4.30;99.90;;;;;;5008313;28;20030;-82
2021/01/01 10:10:08;;;;;;;14.30;7.32;;;4.30;99.90;;;;;;5008267;28;20026;-81
2021/01/01 10:12:34;;;;;;;18.98;7.45;;;4.30;99.90;;;;;;5008124;28;20037;-79
2021/01/01 10:15:00;;;;;;;11.40;6.40;;;4.30;99.90;;;;;;5008222;28;20030;-81
2021/01/01 10:17:28;;;;;;;17.17;7.85;;;4.30;99.90;;;;;;5026356;28;20026;-80
2021/01/01 10:19:54;;;;;;;17.85;6.78;;;4.30;99.90;;;;;;5007813;28;20387;-85
2021/01/01 10:22:20;;;;;;;12.65;6.90;;;4.30;99.90;;;;;;5023169;28;20029;-81
2021/01/01 10:24:47;;;;;;;13.43;6.40;;;4.30;99.90;;;;;;5026128;28;20034;-82
2021/01/01 10:27:13;;;;;;;13.60;7.65;;;4.40;99.90;;;;;;5008091;28;20030;-82
2021/01/01 10:29:39;;;;;;;13.95;7.28;;;4.40;99.90;;;;;;5007141;28;20040;-84
2021/01/01 10:32:10;;;;;;;20.50;8.50;;;4.40;99.90;;;;;;5007682;28;20137;-83
2021/01/01 10:34:37;;;;;;;20.70;7.78;;;4.50;99.90;;;;;;5023713;28;20030;-82
2021/01/01 10:37:04;;;;;;;15.70;8.43;;;4.60;99.90;;;;;;5008110;28;20398;-81
2021/01/01 10:39:29;;;;;;;10.23;6.10;;;4.70;99.90;;;;;;5007945;28;20372;-83
2021/01/01 10:41:55;;;;;;;11.32;6.35;;;4.80;99.90;;;;;;5006927;28;20706;-83
2021/01/01 10:44:21;;;;;;;12.48;6.88;;;4.80;99.90;;;;;;5006055;28;20026;-83
2021/01/01 10:46:52;;;;;;;12.23;5.95;;;4.90;99.90;;;;;;4988082;28;20037;-85
2021/01/01 10:49:27;;;;;;;14.25;7.47;;;5.00;99.90;;;;;;4995883;28;20113;-81
2021/01/01 10:51:58;;;;;;;11.68;6.93;;;5.10;99.90;;;;;;5007819;28;20038;-78
2021/01/01 10:54:24;;;;;;;13.82;7.03;;;5.20;99.90;;;;;;5004872;28;20030;-83
2021/01/01 10:56:49;;;;;;;13.98;7.18;;;5.30;99.90;;;;;;5007344;28;20101;-81
2021/01/01 10:59:15;;;;;;;14.07;6.50;;;5.20;99.90;;;;;;5025229;28;20478;-80
2021/01/01 11:01:40;;;;;;;18.42;8.15;;;5.20;99.90;;;;;;5006668;28;20076;-81
2021/01/01 11:04:06;;;;;;;16.77;8.68;;;5.20;99.90;;;;;;5007502;28;20032;-81
2021/01/01 11:06:36;;;;;;;19.58;8.32;;;5.10;99.90;;;;;;5024960;28;20049;-82
2021/01/01 11:09:03;;;;;;;22.05;9.07;;;5.10;99.90;;;;;;5024752;28;20050;-81
2021/01/01 11:11:29;;;;;;;11.85;6.97;;;5.00;99.90;;;;;;5025260;28;20060;-82
2021/01/01 11:14:09;;;;;;;13.27;7.63;;;5.00;99.90;;;;;;5006829;28;20049;-81
2021/01/01 12:22:59;;;;;;;10.88;5.53;;;7.10;99.90;;;;;;5024015;28;20044;-84
2021/01/01 12:25:26;;;;;;;15.75;7.03;;;7.80;99.90;;;;;;5006488;28;20042;-84
2021/01/01 12:27:59;;;;;;;10.43;5.13;;;8.20;99.90;;;;;;5006485;28;20037;-82
2021/01/01 12:30:27;;;;;;;9.10;5.10;;;8.40;99.90;;;;;;5007160;28;20030;-81
2021/01/01 12:32:54;;;;;;;14.85;6.43;;;8.30;99.90;;;;;;5006394;28;20057;-82
2021/01/01 12:35:19;;;;;;;12.60;6.72;;;8.10;99.90;;;;;;5005789;28;20034;-80
2021/01/01 12:37:48;;;;;;;11.07;6.22;;;8.00;99.90;;;;;;5023614;28;20037;-83
2021/01/01 12:40:15;;;;;;;9.90;5.15;;;7.90;99.90;;;;;;5009591;28;20026;-81
2021/01/01 12:42:40;;;;;;;12.77;6.20;;;7.80;99.90;;;;;;5009222;28;20074;-83
2021/01/01 12:45:08;;;;;;;19.10;7.32;;;7.80;99.90;;;;;;5008133;28;20030;-82
2021/01/01 12:47:34;;;;;;;10.52;6.22;;;7.80;99.90;;;;;;5004249;28;20064;-81
2021/01/01 12:49:59;;;;;;;12.38;4.95;;;7.70;99.90;;;;;;5009667;28;20053;-79
2021/01/01 12:52:25;;;;;;;13.18;5.25;;;7.70;99.90;;;;;;5028123;28;20034;-79
2021/01/01 12:54:50;;;;;;;13.73;5.85;;;7.60;99.90;;;;;;5009268;28;20026;-81
2021/01/01 12:57:16;;;;;;;11.63;5.75;;;7.50;99.90;;;;;;5009478;28;20057;-80
2021/01/01 12:59:42;;;;;;;14.50;6.80;;;7.40;99.90;;;;;;5009556;28;20018;-80
2021/01/01 13:02:07;;;;;;;14.90;6.40;;;7.30;99.90;;;;;;5008480;28;20076;-82
2021/01/01 13:04:33;;;;;;;13.50;5.95;;;7.20;99.90;;;;;;5008912;28;20080;-82
2021/01/01 13:06:59;;;;;;;15.73;6.10;;;7.10;99.90;;;;;;5009517;28;20430;-83
2021/01/01 13:09:25;;;;;;;11.02;5.72;;;6.90;99.90;;;;;;5008819;28;20040;-85
2021/01/01 13:11:50;;;;;;;10.98;6.55;;;6.90;99.90;;;;;;5026598;28;20513;-85
2021/01/01 13:14:16;;;;;;;12.82;6.50;;;6.80;99.90;;;;;;5008236;28;20033;-84
2021/01/01 13:16:43;;;;;;;10.90;5.60;;;6.70;99.90;;;;;;5008484;28;20037;-87
2021/01/01 13:45:50;;;;;;;13.95;5.82;;;6.40;99.90;;;;;;5517716;23;20041;-79
2021/01/01 13:48:15;;;;;;;11.50;6.18;;;6.40;99.90;;;;;;4997409;28;20061;-78
2021/01/01 13:50:44;;;;;;;17.55;8.32;;;6.40;99.90;;;;;;4987325;28;20378;-79
2021/01/01 13:53:10;;;;;;;15.32;7.35;;;6.50;99.90;;;;;;5004725;28;20493;-80
2021/01/01 13:55:35;;;;;;;17.95;7.07;;;6.40;99.90;;;;;;4988642;28;20037;-79
2021/01/01 13:58:01;;;;;;;12.52;6.50;;;6.40;99.90;;;;;;4988661;28;20029;-79
2021/01/01 14:00:27;;;;;;;7.85;4.55;;;6.30;99.90;;;;;;4988968;28;20062;-78
2021/01/01 14:02:53;;;;;;;11.00;5.78;;;6.30;99.90;;;;;;5005642;28;20037;-78
2021/01/01 14:05:18;;;;;;;7.95;5.25;;;6.20;99.90;;;;;;5005942;28;20049;-79
2021/01/01 14:07:44;;;;;;;14.32;6.35;;;6.20;99.90;;;;;;5006158;28;20061;-80
2021/01/01 14:10:10;;;;;;;21.05;9.23;;;6.20;99.90;;;;;;5005610;28;20098;-80
2021/01/01 14:12:35;;;;;;;14.48;6.15;;;6.20;99.90;;;;;;5005083;28;20073;-78
2021/01/01 14:15:02;;;;;;;15.57;6.47;;;6.20;99.90;;;;;;4987831;28;20026;-78
2021/01/01 14:17:28;;;;;;;14.77;6.55;;;6.20;99.90;;;;;;4987546;28;20062;-78
2021/01/01 14:19:53;;;;;;;11.77;5.40;;;6.30;99.90;;;;;;4987282;28;20038;-79
2021/01/01 14:22:19;;;;;;;15.40;6.80;;;6.20;99.90;;;;;;5005357;28;20034;-80
2021/01/01 14:24:45;;;;;;;14.55;7.25;;;6.20;99.90;;;;;;4986643;28;20058;-78